Little Chicago, Wisconsin
Current Conditions -  °F | °C
As of 11:35 AM on Friday 24 Oct 2014 (Local Time) from KAUW Reporting Station
Haze Haze  
Wind Chill: 42°   Ceiling: 200
Heat Index: 46°   Visibility: 2.5mi
Dew Point: 46°   Wind: 7mph
Humidity: 100%   Direction: 190°S
Pressure: 29.98"   Gusts: NA
Location:  44.9438°N, 89.8335°W
Report Text: KAUW 241635Z AUTO 19006KT 2 1/2SM BR OVC002 08/08 A2998 RMK AO2 T00780078
Loading
Personal Weather Stations






























Interactive Weather Map
Tropical Storm Tracking
New forecast layout! Learn more

10-Day Weather Forecast

Advertisements
Track Severe Weather on mobile